createdAt,value
2023-01-23T00:00:47.076Z,23.58
2023-01-23T00:03:34.116Z,24.52
2023-01-23T00:06:20.682Z,22.20
2023-01-23T00:09:07.197Z,24.38
2023-01-23T00:11:53.879Z,25.60
2023-01-23T00:14:41.592Z,23.30
2023-01-23T00:17:29.038Z,28.25
2023-01-23T00:20:15.994Z,23.23
2023-01-23T00:23:02.387Z,27.13
2023-01-23T00:25:48.992Z,23.65
2023-01-23T00:28:35.877Z,28.50
2023-01-23T00:31:26.113Z,21.50
2023-01-23T00:34:15.134Z,24.48
2023-01-23T00:37:01.680Z,29.65
2023-01-23T00:39:50.878Z,24.45
2023-01-23T00:42:37.215Z,23.83
2023-01-23T00:45:23.674Z,21.17
2023-01-23T00:48:11.947Z,25.52
2023-01-23T00:50:58.796Z,24.95
2023-01-23T00:53:46.949Z,27.30
2023-01-23T00:56:33.665Z,24.80
2023-01-23T00:59:20.355Z,33.00
2023-01-23T01:02:07.096Z,25.70
2023-01-23T01:04:55.408Z,30.02
2023-01-23T01:07:42.258Z,27.65
2023-01-23T01:10:29.642Z,25.35
2023-01-23T01:13:19.518Z,22.25
2023-01-23T01:16:07.237Z,24.37
2023-01-23T01:18:55.413Z,24.17
2023-01-23T01:21:43.986Z,28.95
2023-01-23T01:24:31.387Z,24.33
2023-01-23T01:27:17.940Z,31.58
2023-01-23T01:30:04.927Z,23.02
2023-01-23T01:32:51.364Z,23.60
2023-01-23T01:35:40.191Z,22.90
2023-01-23T01:38:28.748Z,25.27
2023-01-23T01:41:18.656Z,25.92
2023-01-23T01:44:05.616Z,27.58
2023-01-23T01:46:52.716Z,28.25
2023-01-23T01:49:39.546Z,33.17
2023-01-23T01:52:26.997Z,25.95
2023-01-23T01:55:15.337Z,26.15
2023-01-23T01:58:02.212Z,26.65
2023-01-23T02:00:49.214Z,28.15
2023-01-23T02:03:36.473Z,27.70
2023-01-23T02:06:23.702Z,24.70
2023-01-23T02:09:16.626Z,25.10
2023-01-23T02:12:04.800Z,26.92
2023-01-23T02:14:51.179Z,32.75
2023-01-23T02:17:38.210Z,26.38
2023-01-23T02:20:26.057Z,32.35
2023-01-23T02:23:23.882Z,30.38
2023-01-23T02:26:15.374Z,24.48
2023-01-23T02:29:02.075Z,31.67
2023-01-23T02:31:53.331Z,30.17
2023-01-23T02:34:42.648Z,27.23
2023-01-23T02:37:34.459Z,22.77
2023-01-23T02:40:31.975Z,28.38
2023-01-23T02:43:24.686Z,28.63
2023-01-23T02:46:19.052Z,27.92
2023-01-23T02:49:05.648Z,29.00
2023-01-23T02:51:55.570Z,30.73
2023-01-23T02:54:42.999Z,35.87
2023-01-23T02:57:29.848Z,31.50
2023-01-23T03:00:20.586Z,24.90
2023-01-23T03:03:08.599Z,26.80
2023-01-23T03:05:55.679Z,25.85
2023-01-23T03:08:47.376Z,28.30
2023-01-23T03:11:34.243Z,33.95
2023-01-23T03:14:24.657Z,30.52
2023-01-23T03:17:14.811Z,27.15
2023-01-23T03:20:01.961Z,27.33
2023-01-23T03:22:48.444Z,29.95
2023-01-23T03:25:34.721Z,26.30
2023-01-23T03:28:39.820Z,26.05
2023-01-23T03:31:26.455Z,29.15
2023-01-23T03:34:17.793Z,37.80
2023-01-23T03:40:10.523Z,27.88
2023-01-23T03:42:56.959Z,30.42
2023-01-23T03:45:47.319Z,27.52
2023-01-23T03:48:34.304Z,33.17
2023-01-23T03:51:22.406Z,39.17
2023-01-23T03:54:09.725Z,31.08
2023-01-23T03:56:56.799Z,30.98
2023-01-23T04:00:22.347Z,34.90
2023-01-23T04:03:16.694Z,35.38
2023-01-23T04:06:03.575Z,35.78
2023-01-23T04:08:51.131Z,32.67
2023-01-23T04:11:37.884Z,35.40
2023-01-23T04:14:30.406Z,33.78
2023-01-23T04:17:17.669Z,33.83
2023-01-23T04:20:05.517Z,37.10
2023-01-23T04:22:51.892Z,35.45
2023-01-23T04:25:40.125Z,31.13
2023-01-23T04:28:31.724Z,32.72
2023-01-23T04:31:18.495Z,29.95
2023-01-23T04:34:05.112Z,31.70
2023-01-23T04:36:52.097Z,29.52
2023-01-23T04:39:38.912Z,30.48
2023-01-23T04:42:26.515Z,29.48
2023-01-23T04:45:36.979Z,30.05
2023-01-23T04:48:43.845Z,30.25
2023-01-23T04:51:31.759Z,31.65
2023-01-23T04:54:18.888Z,28.55
2023-01-23T04:57:05.494Z,28.75
2023-01-23T04:59:54.884Z,34.42
2023-01-23T05:02:42.123Z,37.45
2023-01-23T05:05:29.353Z,31.00
2023-01-23T05:08:19.273Z,33.50
2023-01-23T05:11:13.947Z,33.45
2023-01-23T05:14:00.490Z,34.83
2023-01-23T05:16:50.870Z,31.58
2023-01-23T05:19:39.739Z,35.63
2023-01-23T05:22:26.745Z,31.63
2023-01-23T05:25:13.006Z,32.55
2023-01-23T05:27:59.978Z,31.30
2023-01-23T05:30:47.411Z,26.88
2023-01-23T05:33:44.122Z,34.75
2023-01-23T05:36:30.850Z,32.45
2023-01-23T05:39:18.342Z,34.00
2023-01-23T05:42:05.489Z,35.22
2023-01-23T05:44:55.088Z,30.55
2023-01-23T05:47:48.633Z,29.13
2023-01-23T05:50:38.829Z,33.72
2023-01-23T05:53:24.986Z,27.70
2023-01-23T05:56:12.463Z,28.75
2023-01-23T05:59:22.155Z,36.15
2023-01-23T06:02:21.238Z,35.15
2023-01-23T06:05:42.831Z,33.35
2023-01-23T06:08:36.200Z,29.55
2023-01-23T06:11:23.443Z,35.55
2023-01-23T06:14:10.064Z,38.05
2023-01-23T06:16:56.734Z,34.28
2023-01-23T06:19:43.333Z,40.72
2023-01-23T06:22:31.971Z,34.95
2023-01-23T06:25:25.816Z,38.83
2023-01-23T06:28:14.353Z,34.50
2023-01-23T06:31:03.953Z,32.72
2023-01-23T06:33:58.151Z,36.95
2023-01-23T06:36:50.499Z,31.17
2023-01-23T06:39:38.793Z,38.63
2023-01-23T06:42:26.999Z,35.47
2023-01-23T06:45:13.479Z,37.22
2023-01-23T06:48:00.437Z,36.25
2023-01-23T06:50:48.352Z,36.78
2023-01-23T06:53:35.338Z,41.35
2023-01-23T06:56:23.478Z,37.63
2023-01-23T06:59:10.387Z,39.53
2023-01-23T07:01:57.365Z,38.97
2023-01-23T07:04:52.007Z,41.72
2023-01-23T07:07:39.733Z,39.40
2023-01-23T07:10:26.392Z,37.50
2023-01-23T07:13:14.525Z,34.75
2023-01-23T07:16:01.780Z,38.05
2023-01-23T07:18:48.594Z,39.75
2023-01-23T07:21:35.772Z,35.10
2023-01-23T07:24:22.250Z,32.13
2023-01-23T07:27:08.742Z,39.47
2023-01-23T07:29:56.802Z,40.08
2023-01-23T07:32:43.739Z,41.13
2023-01-23T07:35:30.438Z,36.10
2023-01-23T07:38:17.098Z,38.10
2023-01-23T07:41:03.667Z,36.40
2023-01-23T07:43:50.234Z,37.83
2023-01-23T07:46:38.152Z,38.10
2023-01-23T07:49:24.776Z,39.97
2023-01-23T07:52:11.234Z,40.63
2023-01-23T07:54:57.920Z,33.53
2023-01-23T07:57:44.393Z,30.40
2023-01-23T08:00:31.428Z,37.38
2023-01-23T08:03:20.781Z,43.30
2023-01-23T08:06:08.480Z,42.93
2023-01-23T08:08:54.751Z,35.55
2023-01-23T08:11:41.161Z,35.78
2023-01-23T08:14:28.042Z,36.22
2023-01-23T08:17:14.501Z,32.90
2023-01-23T08:20:02.474Z,38.88
2023-01-23T08:22:49.051Z,38.03
2023-01-23T08:25:35.904Z,35.35
2023-01-23T08:28:24.486Z,35.53
2023-01-23T08:31:13.116Z,38.15
2023-01-23T08:33:59.966Z,35.95
2023-01-23T08:36:48.081Z,42.53
2023-01-23T08:39:35.798Z,37.67
2023-01-23T08:42:22.100Z,38.25
2023-01-23T08:45:09.955Z,33.80
2023-01-23T08:47:57.740Z,33.95
2023-01-23T08:50:44.625Z,38.85
2023-01-23T08:53:33.225Z,33.83
2023-01-23T08:56:22.185Z,36.47
2023-01-23T08:59:09.039Z,35.95
2023-01-23T09:01:55.857Z,34.95
2023-01-23T09:04:42.801Z,36.80
2023-01-23T09:07:29.373Z,33.83
2023-01-23T09:10:18.802Z,35.85
2023-01-23T09:13:05.806Z,37.90
2023-01-23T09:15:52.757Z,34.00
2023-01-23T09:18:39.672Z,34.33
2023-01-23T09:21:26.585Z,34.10
2023-01-23T09:24:13.325Z,37.58
2023-01-23T09:27:01.248Z,34.72
2023-01-23T09:29:47.790Z,36.03
2023-01-23T09:32:34.497Z,42.85
2023-01-23T09:35:21.320Z,31.05
2023-01-23T09:38:08.485Z,31.38
2023-01-23T09:40:57.534Z,34.38
2023-01-23T09:43:52.398Z,37.50
2023-01-23T09:46:44.167Z,33.35
2023-01-23T09:49:38.348Z,32.38
2023-01-23T09:52:28.267Z,32.45
2023-01-23T09:55:19.571Z,31.08
2023-01-23T09:58:07.282Z,32.47
2023-01-23T10:00:55.558Z,32.90
2023-01-23T10:03:42.536Z,36.30
2023-01-23T10:06:31.130Z,31.27
2023-01-23T10:09:38.310Z,27.85
2023-01-23T10:12:39.032Z,31.67
2023-01-23T10:15:34.342Z,30.55
2023-01-23T10:18:26.868Z,27.73
2023-01-23T10:21:22.351Z,26.98
2023-01-23T10:24:28.289Z,30.60
2023-01-23T10:27:19.809Z,26.73
2023-01-23T10:30:20.158Z,27.92
2023-01-23T10:36:05.277Z,29.20
2023-01-23T10:39:00.487Z,26.85
2023-01-23T10:41:51.207Z,30.25
2023-01-23T10:44:37.915Z,29.67
2023-01-23T10:47:33.156Z,31.65
2023-01-23T10:50:36.532Z,28.50
2023-01-23T10:53:25.023Z,28.13
2023-01-23T10:56:17.929Z,27.27
2023-01-23T10:59:06.462Z,25.73
2023-01-23T11:02:01.958Z,29.55
2023-01-23T11:04:51.711Z,27.02
2023-01-23T11:07:40.319Z,26.83
2023-01-23T11:10:28.371Z,32.75
2023-01-23T11:13:27.289Z,29.80
2023-01-23T11:16:15.898Z,26.67
2023-01-23T11:19:13.165Z,24.73
2023-01-23T11:22:02.150Z,27.83
2023-01-23T11:24:49.057Z,24.13
2023-01-23T11:27:36.979Z,24.50
2023-01-23T11:30:32.617Z,26.50
2023-01-23T11:33:34.240Z,27.17
2023-01-23T11:36:41.976Z,27.60
2023-01-23T11:39:42.426Z,25.80
2023-01-23T11:45:34.490Z,22.35
2023-01-23T11:48:35.918Z,21.42
2023-01-23T11:51:32.597Z,21.42
2023-01-23T11:54:37.474Z,21.45
2023-01-23T11:57:33.843Z,23.90
2023-01-23T12:00:33.113Z,22.80
2023-01-23T12:03:43.144Z,25.17
2023-01-23T12:06:40.200Z,24.52
2023-01-23T12:09:32.754Z,20.08
2023-01-23T12:12:30.982Z,21.20
2023-01-23T12:15:31.695Z,17.38
2023-01-23T12:18:30.106Z,20.02
2023-01-23T12:21:20.153Z,18.35
2023-01-23T12:24:18.478Z,18.92
2023-01-23T12:27:15.073Z,17.60
2023-01-23T12:30:27.937Z,20.25
2023-01-23T12:33:29.765Z,21.50
2023-01-23T12:37:08.108Z,20.33
2023-01-23T12:40:08.440Z,17.65
2023-01-23T12:43:01.617Z,18.65
2023-01-23T12:45:51.950Z,17.42
2023-01-23T12:48:44.240Z,18.58
2023-01-23T12:51:37.904Z,23.15
2023-01-23T12:54:32.783Z,21.38
2023-01-23T12:57:52.810Z,19.08
2023-01-23T13:00:57.981Z,20.42
2023-01-23T13:03:59.276Z,20.98
2023-01-23T13:07:03.622Z,18.80
2023-01-23T13:10:06.631Z,17.13
2023-01-23T13:12:57.184Z,19.80
2023-01-23T13:15:44.567Z,22.88
2023-01-23T13:18:51.550Z,19.33
2023-01-23T13:21:57.739Z,21.38
2023-01-23T13:25:05.698Z,18.13
2023-01-23T13:27:55.659Z,19.70
2023-01-23T13:30:43.254Z,20.60
2023-01-23T13:33:58.740Z,20.60
2023-01-23T13:36:50.445Z,20.10
2023-01-23T13:39:38.106Z,22.30
2023-01-23T13:42:35.720Z,21.15
2023-01-23T13:45:28.087Z,16.60
2023-01-23T14:20:43.746Z,20.58
2023-01-23T14:23:36.874Z,21.35
2023-01-23T14:26:27.112Z,19.63
2023-01-23T14:29:21.704Z,18.42
2023-01-23T14:32:23.329Z,19.95
2023-01-23T14:35:17.567Z,18.88
2023-01-23T14:38:08.029Z,18.92
2023-01-23T14:40:57.459Z,21.05
2023-01-23T14:43:47.006Z,19.00
2023-01-23T14:46:40.082Z,19.60
2023-01-23T14:49:30.685Z,18.35
2023-01-23T14:52:24.061Z,17.85
2023-01-23T14:55:29.348Z,18.35
2023-01-23T14:58:23.414Z,15.13
2023-01-23T15:01:11.967Z,15.45
2023-01-23T15:04:01.251Z,14.00
2023-01-23T15:06:53.466Z,16.05
2023-01-23T15:09:42.858Z,16.48
2023-01-23T15:12:29.687Z,13.75
2023-01-23T15:15:20.402Z,14.18
2023-01-23T15:18:22.654Z,16.77
2023-01-23T15:21:10.066Z,13.63
2023-01-23T15:24:05.638Z,13.77
2023-01-23T15:27:04.593Z,13.30
2023-01-23T15:29:51.591Z,16.02
2023-01-23T15:32:40.122Z,23.00
2023-01-23T15:35:27.167Z,24.27
2023-01-23T15:38:17.515Z,24.75
2023-01-23T15:41:10.161Z,26.33
2023-01-23T15:43:56.895Z,21.17
2023-01-23T15:46:43.609Z,19.67
2023-01-23T15:49:33.109Z,14.02
2023-01-23T15:52:22.574Z,17.00
2023-01-23T15:55:12.255Z,13.53
2023-01-23T15:57:58.849Z,17.48
2023-01-23T16:00:45.540Z,18.75
2023-01-23T16:03:32.707Z,16.80
2023-01-23T16:06:22.492Z,17.77
2023-01-23T16:09:19.386Z,19.38
2023-01-23T16:12:06.387Z,18.33
2023-01-23T16:14:53.419Z,18.13
2023-01-23T16:17:40.047Z,19.42
2023-01-23T16:20:29.526Z,19.70
2023-01-23T16:23:20.740Z,18.10
2023-01-23T16:26:07.585Z,20.20
2023-01-23T16:29:05.073Z,19.20
2023-01-23T16:32:00.219Z,20.13
2023-01-23T16:34:46.740Z,19.45
2023-01-23T16:37:34.471Z,19.38
2023-01-23T16:40:25.185Z,22.05
2023-01-23T16:43:11.725Z,19.42
2023-01-23T16:45:58.360Z,22.63
2023-01-23T16:48:44.854Z,21.23
2023-01-23T16:51:33.467Z,20.95
2023-01-23T16:54:21.559Z,22.33
2023-01-23T16:57:13.892Z,20.02
2023-01-23T17:00:00.423Z,23.83
2023-01-23T17:02:49.511Z,23.83
2023-01-23T17:05:35.785Z,22.27
2023-01-23T17:08:24.934Z,23.15
2023-01-23T17:11:19.639Z,21.00
2023-01-23T17:14:14.179Z,21.85
2023-01-23T17:17:06.021Z,22.45
2023-01-23T17:19:52.995Z,20.45
2023-01-23T17:22:42.482Z,24.20
2023-01-23T17:25:29.034Z,22.95
2023-01-23T17:28:15.704Z,23.95
2023-01-23T17:31:04.900Z,20.88
2023-01-23T17:33:52.541Z,23.17
2023-01-23T17:36:39.041Z,24.25
2023-01-23T17:39:25.811Z,22.95
2023-01-23T17:42:14.573Z,25.23
2023-01-23T17:45:01.571Z,21.77
2023-01-23T17:47:53.194Z,23.48
2023-01-23T17:50:39.663Z,20.30
2023-01-23T17:53:27.810Z,21.95
2023-01-23T17:56:15.091Z,21.35
2023-01-23T17:59:01.895Z,20.98
2023-01-23T18:01:48.739Z,29.95
2023-01-23T18:04:37.054Z,22.85
2023-01-23T18:07:24.147Z,22.50
2023-01-23T18:10:12.768Z,20.60
2023-01-23T18:13:09.764Z,23.70
2023-01-23T18:16:08.759Z,23.98
2023-01-23T18:19:01.185Z,27.08
2023-01-23T18:21:52.525Z,24.98
2023-01-23T18:24:39.656Z,23.63
2023-01-23T18:27:27.776Z,24.13
2023-01-23T18:30:28.465Z,21.75
2023-01-23T18:33:29.650Z,22.25
2023-01-23T18:36:39.600Z,25.33
2023-01-23T18:39:38.676Z,22.70
2023-01-23T18:42:33.238Z,23.48
2023-01-23T18:45:26.966Z,26.25
2023-01-23T18:48:24.773Z,22.38
2023-01-23T18:51:26.088Z,22.75
2023-01-23T18:54:28.976Z,21.02
2023-01-23T18:57:37.658Z,22.85
2023-01-23T19:00:30.601Z,24.58
2023-01-23T19:03:19.189Z,24.98
2023-01-23T19:06:12.850Z,22.52
2023-01-23T19:08:59.579Z,25.45
2023-01-23T19:12:01.107Z,23.50
2023-01-23T19:15:03.110Z,23.88
2023-01-23T19:17:54.081Z,23.25
2023-01-23T19:20:46.688Z,23.55
2023-01-23T19:23:40.433Z,23.63
2023-01-23T19:26:29.755Z,20.98
2023-01-23T19:29:22.399Z,23.57
2023-01-23T19:32:11.884Z,26.55
2023-01-23T19:35:13.069Z,24.55
2023-01-23T19:38:00.434Z,24.80
2023-01-23T19:40:47.261Z,23.08
2023-01-23T19:43:34.099Z,23.20
2023-01-23T19:46:23.050Z,26.00
2023-01-23T19:49:11.348Z,24.00
2023-01-23T19:51:58.146Z,24.77
2023-01-23T19:54:45.108Z,25.73
2023-01-23T19:57:31.427Z,24.00
2023-01-23T20:00:19.369Z,22.42
2023-01-23T20:03:06.176Z,24.27
2023-01-23T20:05:55.720Z,23.52
2023-01-23T20:08:42.823Z,27.55
2023-01-23T20:11:29.643Z,23.60
2023-01-23T20:14:16.828Z,23.40
2023-01-23T20:17:03.613Z,31.10
2023-01-23T20:19:50.263Z,25.10
2023-01-23T20:22:38.471Z,25.85
2023-01-23T20:25:25.476Z,26.48
2023-01-23T20:28:12.207Z,24.52
2023-01-23T20:30:58.824Z,25.33
2023-01-23T20:33:45.757Z,28.92
2023-01-23T20:36:32.324Z,27.90
2023-01-23T20:39:20.344Z,25.98
2023-01-23T20:42:06.823Z,28.83
2023-01-23T20:44:53.567Z,30.35
2023-01-23T20:47:40.292Z,25.17
2023-01-23T20:50:26.997Z,25.67
2023-01-23T20:53:34.132Z,27.55
2023-01-23T20:56:27.497Z,27.63
2023-01-23T20:59:19.125Z,27.20
2023-01-23T21:02:24.173Z,26.17
2023-01-23T21:05:10.804Z,30.55
2023-01-23T21:07:58.256Z,27.23
2023-01-23T21:10:44.800Z,29.23
2023-01-23T21:13:32.881Z,25.23
2023-01-23T21:16:19.668Z,27.17
2023-01-23T21:19:06.302Z,28.77
2023-01-23T21:21:53.009Z,25.77
2023-01-23T21:24:39.757Z,26.90
2023-01-23T21:27:26.139Z,29.20
2023-01-23T21:30:14.460Z,30.27
2023-01-23T21:33:01.277Z,26.00
2023-01-23T21:35:49.532Z,25.45
2023-01-23T21:38:36.076Z,27.98
2023-01-23T21:41:23.397Z,26.00
2023-01-23T21:44:10.408Z,26.02
2023-01-23T21:46:57.939Z,26.83
2023-01-23T21:49:44.543Z,26.20
2023-01-23T21:52:31.293Z,29.05
2023-01-23T21:55:17.890Z,27.60
2023-01-23T21:58:04.496Z,27.33
2023-01-23T22:01:15.285Z,27.77
2023-01-23T22:04:05.055Z,26.92
2023-01-23T22:06:54.206Z,23.88
2023-01-23T22:09:41.445Z,28.77
2023-01-23T22:12:28.945Z,25.75
2023-01-23T22:15:15.903Z,24.85
2023-01-23T22:18:02.324Z,23.80
2023-01-23T22:20:54.191Z,23.83
2023-01-23T22:23:41.321Z,22.85
2023-01-23T22:26:28.323Z,23.95
2023-01-23T22:29:14.901Z,24.45
2023-01-23T22:32:01.828Z,25.27
2023-01-23T22:34:48.618Z,25.83
2023-01-23T22:37:36.408Z,23.55
2023-01-23T22:40:22.888Z,26.30
2023-01-23T22:43:10.436Z,25.02
2023-01-23T22:46:06.945Z,26.83
2023-01-23T22:48:53.400Z,23.30
2023-01-23T22:51:40.009Z,27.20
2023-01-23T22:54:28.318Z,23.33
2023-01-23T22:57:14.647Z,23.33
2023-01-23T23:03:11.074Z,26.53
2023-01-23T23:05:58.650Z,22.90
2023-01-23T23:08:47.721Z,24.52
2023-01-23T23:11:37.280Z,24.60
2023-01-23T23:14:24.240Z,25.33
2023-01-23T23:17:11.108Z,27.80
2023-01-23T23:19:57.407Z,24.15
2023-01-23T23:22:44.298Z,21.80
2023-01-23T23:25:30.377Z,27.75
2023-01-23T23:28:18.176Z,26.38
2023-01-23T23:31:04.939Z,24.33
2023-01-23T23:33:51.647Z,23.35
2023-01-23T23:36:37.923Z,26.15
2023-01-23T23:39:25.842Z,23.02
2023-01-23T23:42:12.707Z,24.48
2023-01-23T23:45:00.912Z,22.35
2023-01-23T23:47:47.540Z,24.02
2023-01-23T23:50:34.814Z,28.30
2023-01-23T23:53:22.185Z,25.63
2023-01-23T23:56:14.018Z,23.77
2023-01-23T23:59:00.187Z,23.10
